GEC8361 VOMM-EDDF
Flight info
| Callsign | GEC8361 |
|---|---|
| Flight time | N/A |
| Altitude | 32000 |
| Route | DOLKI2B DOLKI Q8 AGELA W56 BBB/N0508F310 G208 APANO/N0505F320 G451 AAE Z8 VIKIT P628 RK G202 ZB/N0490F340 L750 RANAH B449 INRAK A240 KRS B143 TUNEK A909 RODAR N644 LAGAS DCT SARPI UM10 OLUPO/N0485F360 UM10 GOKPA UL746 ODERO DCT OPT DCT SOKRU DCT ARSIN DCT SUBEN DCT AKINI T161 DEBHI DEBHI1B |
| Aircraft | B77L/H-SDE1E2E3FGHIJ2J3J4J5M1RWXY/LB1D1 |
Departure
| Time | 2026-05-04 05:23 |
|---|---|
| Airport | Chennai International Airport (VOMM) |
Arrival
| Time | N/A |
|---|---|
| Airport | Frankfurt Main Airport (EDDF) |
| Time | Latitude | Longitude | Altitude | Speed | Heading |
|---|---|---|---|---|---|
| 2026-05-04 04:58 | 12.99057 | 80.17742 | 49 ft | 0 kts | 130° |
| 2026-05-04 05:12 | 12.99063 | 80.17735 | 48 ft | 4 kts | 131° |
| 2026-05-04 05:12 | 12.99081 | 80.17715 | 49 ft | 4 kts | 133° |
| 2026-05-04 05:12 | 12.99094 | 80.17700 | 48 ft | 4 kts | 126° |
| 2026-05-04 05:13 | 12.99107 | 80.17677 | 47 ft | 4 kts | 108° |
| 2026-05-04 05:13 | 12.99112 | 80.17652 | 47 ft | 4 kts | 84° |
| 2026-05-04 05:13 | 12.99109 | 80.17637 | 47 ft | 1 kts | 68° |
| 2026-05-04 05:16 | 12.99110 | 80.17640 | 47 ft | 3 kts | 68° |
| 2026-05-04 05:16 | 12.99138 | 80.17679 | 48 ft | 11 kts | 35° |
| 2026-05-04 05:16 | 12.99212 | 80.17743 | 51 ft | 18 kts | 62° |
| 2026-05-04 05:17 | 12.99263 | 80.17871 | 51 ft | 20 kts | 68° |
| 2026-05-04 05:17 | 12.99313 | 80.18001 | 52 ft | 20 kts | 68° |
| 2026-05-04 05:17 | 12.99358 | 80.18134 | 54 ft | 20 kts | 81° |
| 2026-05-04 05:17 | 12.99362 | 80.18203 | 56 ft | 6 kts | 84° |
| 2026-05-04 05:18 | 12.99372 | 80.18241 | 52 ft | 6 kts | 65° |
| 2026-05-04 05:18 | 12.99391 | 80.18277 | 49 ft | 6 kts | 60° |
| 2026-05-04 05:18 | 12.99417 | 80.18307 | 48 ft | 6 kts | 43° |
| 2026-05-04 05:18 | 12.99447 | 80.18335 | 52 ft | 6 kts | 42° |
| 2026-05-04 05:19 | 12.99476 | 80.18363 | 52 ft | 6 kts | 42° |
| 2026-05-04 05:19 | 12.99480 | 80.18366 | 51 ft | 0 kts | 41° |
| 2026-05-04 05:20 | 12.99484 | 80.18369 | 48 ft | 3 kts | 41° |
| 2026-05-04 05:21 | 12.99521 | 80.18398 | 49 ft | 9 kts | 30° |
| 2026-05-04 05:21 | 12.99560 | 80.18370 | 52 ft | 9 kts | 275° |
| 2026-05-04 05:21 | 12.99544 | 80.18310 | 51 ft | 9 kts | 248° |
| 2026-05-04 05:21 | 12.99491 | 80.18172 | 49 ft | 43 kts | 249° |
| 2026-05-04 05:22 | 12.99310 | 80.17693 | 53 ft | 99 kts | 249° |
| 2026-05-04 05:22 | 12.99002 | 80.16872 | 47 ft | 146 kts | 248° |
| 2026-05-04 05:22 | 12.98595 | 80.15837 | 200 ft | 156 kts | 249° |
| 2026-05-04 05:22 | 12.98263 | 80.14790 | 380 ft | 153 kts | 249° |
| 2026-05-04 05:23 | 12.97942 | 80.13722 | 487 ft | 161 kts | 249° |
| 2026-05-04 05:23 | 12.97615 | 80.12612 | 675 ft | 165 kts | 250° |
| 2026-05-04 05:23 | 12.97333 | 80.11431 | 749 ft | 174 kts | 269° |
| 2026-05-04 05:23 | 12.97397 | 80.10212 | 929 ft | 173 kts | 271° |
| 2026-05-04 05:24 | 12.97463 | 80.08954 | 1014 ft | 182 kts | 271° |
| 2026-05-04 05:24 | 12.97545 | 80.07635 | 1164 ft | 188 kts | 271° |
| 2026-05-04 05:24 | 12.97645 | 80.06293 | 1406 ft | 192 kts | 272° |
| 2026-05-04 05:24 | 12.97745 | 80.04915 | 1638 ft | 198 kts | 271° |
| 2026-05-04 05:25 | 12.97842 | 80.03446 | 1799 ft | 217 kts | 272° |
| 2026-05-04 05:25 | 12.97938 | 80.01821 | 1999 ft | 240 kts | 271° |
| 2026-05-04 05:25 | 12.98029 | 80.00085 | 2396 ft | 248 kts | 271° |
| 2026-05-04 05:25 | 12.98112 | 79.98295 | 2945 ft | 258 kts | 271° |
| 2026-05-04 05:26 | 12.98329 | 79.96479 | 3568 ft | 257 kts | 289° |
| 2026-05-04 05:26 | 12.99194 | 79.94869 | 4186 ft | 258 kts | 306° |
| 2026-05-04 05:26 | 13.00344 | 79.93420 | 4717 ft | 268 kts | 310° |
| 2026-05-04 05:26 | 13.01592 | 79.91970 | 5293 ft | 273 kts | 311° |
| 2026-05-04 05:27 | 13.02859 | 79.90525 | 6021 ft | 273 kts | 310° |
| 2026-05-04 05:28 | 13.12145 | 79.79818 | 10319 ft | 304 kts | 313° |
| 2026-05-04 05:29 | 13.13581 | 79.78119 | 10454 ft | 326 kts | 313° |
| 2026-05-04 05:29 | 13.15115 | 79.76308 | 10625 ft | 347 kts | 313° |
| 2026-05-04 05:29 | 13.16747 | 79.74383 | 10778 ft | 367 kts | 313° |
| 2026-05-04 05:29 | 13.18453 | 79.72371 | 11180 ft | 379 kts | 313° |
| 2026-05-04 05:31 | 13.31057 | 79.57506 | 15273 ft | 412 kts | 311° |
| 2026-05-04 05:31 | 13.32948 | 79.55276 | 15839 ft | 415 kts | 311° |
| 2026-05-04 05:32 | 13.34854 | 79.53028 | 16412 ft | 419 kts | 310° |
| 2026-05-04 05:32 | 13.36777 | 79.50760 | 16939 ft | 423 kts | 310° |
| 2026-05-04 05:32 | 13.38717 | 79.48470 | 17493 ft | 426 kts | 310° |
| 2026-05-04 05:33 | 13.42633 | 79.43847 | 18518 ft | 432 kts | 310° |
| 2026-05-04 05:33 | 13.44615 | 79.41506 | 18999 ft | 435 kts | 310° |
| 2026-05-04 05:33 | 13.46576 | 79.39190 | 19475 ft | 437 kts | 309° |
| 2026-05-04 05:33 | 13.48579 | 79.36823 | 19947 ft | 439 kts | 309° |
| 2026-05-04 05:34 | 13.50586 | 79.34452 | 20396 ft | 441 kts | 309° |
| 2026-05-04 05:34 | 13.52602 | 79.32068 | 20821 ft | 444 kts | 309° |
| 2026-05-04 05:34 | 13.54633 | 79.29666 | 21251 ft | 447 kts | 309° |
| 2026-05-04 05:34 | 13.56670 | 79.27258 | 21702 ft | 449 kts | 309° |